createdAt,value
2022-09-11T00:00:59.592Z,16.95
2022-09-11T00:06:12.429Z,17.17
2022-09-11T00:08:47.059Z,17.17
2022-09-11T00:11:18.720Z,15.95
2022-09-11T00:13:50.500Z,16.55
2022-09-11T00:16:27.036Z,17.50
2022-09-11T00:18:58.738Z,17.27
2022-09-11T00:21:29.183Z,18.10
2022-09-11T00:23:58.687Z,19.65
2022-09-11T00:26:28.696Z,20.38
2022-09-11T00:29:01.412Z,19.60
2022-09-11T00:31:34.048Z,22.02
2022-09-11T00:34:03.280Z,21.02
2022-09-11T00:36:35.305Z,24.08
2022-09-11T00:39:10.194Z,23.00
2022-09-11T00:41:41.971Z,25.83
2022-09-11T00:44:46.193Z,28.67
2022-09-11T00:47:19.622Z,30.50
2022-09-11T00:49:57.213Z,33.78
2022-09-11T00:52:35.716Z,33.20
2022-09-11T00:55:09.507Z,33.55
2022-09-11T00:57:46.456Z,35.55
2022-09-11T01:00:16.468Z,34.75
2022-09-11T01:02:50.945Z,37.55
2022-09-11T01:05:26.723Z,37.60
2022-09-11T01:08:03.339Z,34.67
2022-09-11T01:10:45.907Z,33.70
2022-09-11T01:13:24.364Z,35.33
2022-09-11T01:16:03.396Z,33.28
2022-09-11T01:18:40.760Z,31.60
2022-09-11T01:21:38.117Z,28.55
2022-09-11T01:24:23.582Z,30.90
2022-09-11T01:27:07.123Z,28.85
2022-09-11T01:29:44.791Z,33.67
2022-09-11T01:32:22.967Z,34.83
2022-09-11T01:34:59.833Z,33.90
2022-09-11T01:37:37.931Z,32.88
2022-09-11T01:40:18.457Z,32.28
2022-09-11T01:45:46.777Z,30.08
2022-09-11T01:48:28.573Z,30.75
2022-09-11T01:53:33.836Z,29.73
2022-09-11T01:56:07.791Z,29.02
2022-09-11T01:58:41.003Z,28.00
2022-09-11T02:01:19.341Z,29.65
2022-09-11T02:06:32.791Z,25.05
2022-09-11T02:09:09.872Z,26.63
2022-09-11T02:11:42.703Z,26.98
2022-09-11T02:14:22.451Z,27.88
2022-09-11T02:16:55.704Z,28.45
2022-09-11T02:19:27.951Z,29.73
2022-09-11T02:24:29.141Z,30.42
2022-09-11T02:27:02.595Z,29.37
2022-09-11T02:29:33.984Z,30.70
2022-09-11T02:32:05.784Z,30.58
2022-09-11T02:34:38.086Z,29.58
2022-09-11T02:37:18.298Z,27.17
2022-09-11T02:40:06.297Z,30.30
2022-09-11T02:43:04.601Z,28.92
2022-09-11T02:45:45.877Z,27.83
2022-09-11T02:48:34.353Z,28.17
2022-09-11T02:51:16.618Z,27.38
2022-09-11T02:53:53.718Z,26.90
2022-09-11T02:56:35.821Z,27.13
2022-09-11T02:59:11.564Z,25.90
2022-09-11T03:01:58.241Z,26.77
2022-09-11T03:04:31.435Z,24.17
2022-09-11T03:07:01.806Z,24.05
2022-09-11T03:09:41.678Z,24.92
2022-09-11T03:12:21.976Z,24.98
2022-09-11T03:14:52.856Z,24.77
2022-09-11T03:17:30.004Z,25.35
2022-09-11T03:20:01.269Z,24.02
2022-09-11T03:22:32.532Z,23.70
2022-09-11T03:25:01.809Z,23.08
2022-09-11T03:27:33.357Z,24.58
2022-09-11T03:30:02.717Z,23.17
2022-09-11T03:32:32.700Z,23.17
2022-09-11T03:35:03.952Z,23.35
2022-09-11T03:37:34.183Z,23.17
2022-09-11T03:40:04.375Z,22.45
2022-09-11T03:42:34.122Z,20.35
2022-09-11T03:45:03.657Z,21.80
2022-09-11T03:47:33.984Z,23.60
2022-09-11T03:50:05.013Z,22.42
2022-09-11T03:52:40.702Z,24.15
2022-09-11T03:55:10.444Z,23.83
2022-09-11T03:57:40.420Z,22.27
2022-09-11T04:00:15.133Z,22.45
2022-09-11T04:02:50.176Z,22.20
2022-09-11T04:05:34.368Z,22.90
2022-09-11T04:10:35.072Z,21.95
2022-09-11T04:13:05.323Z,21.25
2022-09-11T04:15:42.289Z,21.25
2022-09-11T04:18:11.422Z,20.58
2022-09-11T04:20:49.126Z,20.10
2022-09-11T04:23:18.287Z,19.40
2022-09-11T04:25:52.913Z,18.17
2022-09-11T04:28:22.016Z,18.67
2022-09-11T04:30:51.306Z,17.73
2022-09-11T04:33:21.803Z,17.45
2022-09-11T04:35:58.503Z,17.38
2022-09-11T04:38:28.281Z,17.05
2022-09-11T04:41:02.418Z,17.42
2022-09-11T04:43:32.949Z,16.85
2022-09-11T04:46:04.927Z,17.17
2022-09-11T04:48:39.999Z,16.38
2022-09-11T04:51:11.783Z,16.95
2022-09-11T04:53:46.041Z,15.80
2022-09-11T04:56:15.661Z,15.48
2022-09-11T04:58:53.682Z,15.75
2022-09-11T05:01:35.034Z,16.00
2022-09-11T05:04:04.821Z,14.80
2022-09-11T05:06:37.485Z,14.77
2022-09-11T05:09:12.633Z,14.25
2022-09-11T05:11:41.979Z,14.32
2022-09-11T05:14:13.575Z,15.25
2022-09-11T05:16:45.018Z,14.82
2022-09-11T05:19:15.113Z,15.55
2022-09-11T05:21:48.318Z,14.85
2022-09-11T05:24:18.102Z,15.45
2022-09-11T05:26:47.180Z,14.88
2022-09-11T05:29:28.322Z,15.23
2022-09-11T05:32:13.005Z,16.38
2022-09-11T05:34:43.853Z,15.07
2022-09-11T05:37:22.086Z,16.40
2022-09-11T05:39:51.573Z,16.08
2022-09-11T05:42:21.736Z,14.85
2022-09-11T05:44:59.566Z,15.00
2022-09-11T05:47:33.378Z,15.35
2022-09-11T05:50:03.245Z,15.52
2022-09-11T05:52:34.717Z,15.02
2022-09-11T05:55:04.558Z,15.05
2022-09-11T05:57:34.627Z,15.13
2022-09-11T06:00:05.395Z,15.77
2022-09-11T06:02:39.268Z,15.02
2022-09-11T06:05:08.837Z,15.23
2022-09-11T06:07:39.976Z,15.27
2022-09-11T06:10:11.189Z,14.93
2022-09-11T06:12:40.407Z,13.65
2022-09-11T06:20:20.101Z,12.02
2022-09-11T06:23:07.321Z,10.02
2022-09-11T06:25:39.017Z,8.77
2022-09-11T06:28:08.727Z,5.82
2022-09-11T06:31:06.078Z,4.72
2022-09-11T06:33:43.915Z,4.82
2022-09-11T06:36:16.870Z,4.60
2022-09-11T06:38:56.649Z,4.63
2022-09-11T06:41:28.805Z,4.72
2022-09-11T06:44:04.724Z,4.30
2022-09-11T06:46:36.194Z,6.05
2022-09-11T06:49:06.051Z,4.53
2022-09-11T06:51:40.940Z,4.00
2022-09-11T06:54:12.787Z,4.20
2022-09-11T06:56:41.901Z,3.70
2022-09-11T06:59:11.725Z,3.97
2022-09-11T07:01:46.475Z,4.63
2022-09-11T07:04:16.391Z,4.03
2022-09-11T07:06:46.734Z,4.35
2022-09-11T07:09:20.053Z,3.10
2022-09-11T07:11:53.752Z,3.45
2022-09-11T07:14:24.639Z,3.45
2022-09-11T07:17:00.423Z,3.00
2022-09-11T07:19:29.763Z,3.30
2022-09-11T07:22:01.079Z,3.10
2022-09-11T07:24:32.723Z,3.08
2022-09-11T07:27:02.126Z,3.15
2022-09-11T07:29:36.014Z,2.90
2022-09-11T07:32:05.442Z,2.95
2022-09-11T07:34:34.449Z,2.58
2022-09-11T07:37:07.906Z,2.92
2022-09-11T07:39:41.337Z,3.10
2022-09-11T07:42:23.791Z,3.00
2022-09-11T07:44:53.781Z,2.83
2022-09-11T07:47:22.861Z,2.30
2022-09-11T07:49:58.070Z,2.35
2022-09-11T07:52:27.487Z,2.20
2022-09-11T07:55:03.442Z,2.50
2022-09-11T07:57:35.849Z,2.80
2022-09-11T08:00:16.121Z,2.15
2022-09-11T08:02:51.149Z,2.20
2022-09-11T08:05:33.206Z,2.35
2022-09-11T08:08:02.851Z,2.60
2022-09-11T08:10:38.446Z,2.00
2022-09-11T08:13:09.571Z,2.17
2022-09-11T08:15:47.241Z,2.40
2022-09-11T08:18:16.845Z,2.15
2022-09-11T08:20:46.947Z,2.28
2022-09-11T08:23:18.993Z,2.58
2022-09-11T08:25:50.581Z,2.40
2022-09-11T08:28:20.105Z,2.50
2022-09-11T08:30:50.681Z,2.75
2022-09-11T08:33:20.762Z,2.72
2022-09-11T08:35:49.860Z,2.50
2022-09-11T08:38:19.811Z,2.67
2022-09-11T08:40:51.267Z,2.50
2022-09-11T08:43:24.317Z,2.33
2022-09-11T08:46:00.822Z,2.70
2022-09-11T08:48:37.222Z,2.65
2022-09-11T08:51:07.425Z,2.45
2022-09-11T08:53:36.747Z,2.60
2022-09-11T08:56:13.996Z,2.53
2022-09-11T08:59:03.980Z,2.22
2022-09-11T09:01:41.863Z,2.33
2022-09-11T09:04:40.990Z,2.25
2022-09-11T09:07:28.179Z,2.20
2022-09-11T09:10:08.562Z,2.25
2022-09-11T09:12:48.663Z,2.53
2022-09-11T09:15:32.145Z,2.30
2022-09-11T09:18:05.131Z,2.38
2022-09-11T09:20:37.799Z,2.13
2022-09-11T09:23:16.952Z,2.45
2022-09-11T09:25:48.621Z,2.33
2022-09-11T09:28:24.455Z,2.45
2022-09-11T09:30:57.125Z,2.33
2022-09-11T09:33:34.258Z,2.38
2022-09-11T09:36:17.067Z,2.50
2022-09-11T09:38:53.551Z,2.38
2022-09-11T09:41:45.141Z,2.20
2022-09-11T09:44:25.907Z,2.08
2022-09-11T09:46:57.693Z,2.05
2022-09-11T09:49:35.004Z,2.40
2022-09-11T09:52:18.794Z,2.10
2022-09-11T09:54:56.634Z,2.53
2022-09-11T09:57:36.292Z,2.53
2022-09-11T10:00:17.084Z,2.33
2022-09-11T10:02:49.024Z,2.35
2022-09-11T10:05:21.670Z,2.50
2022-09-11T10:07:53.235Z,1.92
2022-09-11T10:10:28.743Z,2.60
2022-09-11T10:13:18.132Z,2.45
2022-09-11T10:15:51.384Z,2.22
2022-09-11T10:18:25.161Z,2.40
2022-09-11T10:20:55.909Z,2.60
2022-09-11T10:23:27.029Z,2.35
2022-09-11T10:25:56.509Z,2.33
2022-09-11T10:28:32.755Z,2.42
2022-09-11T10:31:06.460Z,2.58
2022-09-11T10:33:38.259Z,2.35
2022-09-11T10:36:11.341Z,2.50
2022-09-11T10:38:49.638Z,2.38
2022-09-11T10:41:26.192Z,2.22
2022-09-11T10:43:59.992Z,2.60
2022-09-11T10:46:40.478Z,2.28
2022-09-11T10:49:20.165Z,2.38
2022-09-11T10:52:05.019Z,2.20
2022-09-11T10:54:44.112Z,2.10
2022-09-11T10:57:20.839Z,2.42
2022-09-11T10:59:59.676Z,2.45
2022-09-11T11:02:34.377Z,2.13
2022-09-11T11:05:17.936Z,2.40
2022-09-11T11:08:20.570Z,2.22
2022-09-11T11:11:14.319Z,2.55
2022-09-11T11:13:59.979Z,2.10
2022-09-11T11:16:39.196Z,2.10
2022-09-11T11:19:34.452Z,1.67
2022-09-11T11:22:19.026Z,2.00
2022-09-11T11:25:04.298Z,2.03
2022-09-11T11:28:06.243Z,1.80
2022-09-11T11:30:44.511Z,2.03
2022-09-11T11:33:41.901Z,2.22
2022-09-11T11:36:22.416Z,1.90
2022-09-11T11:41:45.475Z,2.05
2022-09-11T11:44:19.832Z,1.98
2022-09-11T11:46:56.701Z,1.95
2022-09-11T11:49:36.316Z,1.67
2022-09-11T11:52:22.705Z,1.83
2022-09-11T11:55:00.693Z,2.80
2022-09-11T11:57:37.254Z,2.03
2022-09-11T12:00:09.999Z,2.10
2022-09-11T12:02:52.244Z,1.75
2022-09-11T12:05:25.174Z,1.65
2022-09-11T12:07:56.583Z,1.73
2022-09-11T12:10:32.962Z,1.63
2022-09-11T12:13:04.786Z,1.70
2022-09-11T12:15:36.343Z,1.60
2022-09-11T12:18:19.421Z,1.60
2022-09-11T12:20:48.615Z,1.73
2022-09-11T12:24:02.767Z,1.80
2022-09-11T12:26:33.198Z,1.50
2022-09-11T12:29:32.821Z,1.40
2022-09-11T12:32:21.537Z,1.50
2022-09-11T12:35:18.369Z,2.00
2022-09-11T12:37:54.310Z,1.60
2022-09-11T12:40:34.312Z,1.60
2022-09-11T12:43:32.504Z,1.63
2022-09-11T12:46:02.062Z,1.40
2022-09-11T12:48:39.541Z,1.63
2022-09-11T12:57:05.181Z,1.55
2022-09-11T13:02:34.005Z,1.70
2022-09-11T13:05:04.740Z,1.73
2022-09-11T13:07:42.848Z,1.98
2022-09-11T13:10:27.521Z,1.90
2022-09-11T13:12:59.603Z,1.77
2022-09-11T13:15:44.754Z,1.55
2022-09-11T13:18:25.935Z,1.90
2022-09-11T13:21:08.299Z,1.83
2022-09-11T13:23:42.789Z,2.10
2022-09-11T13:26:21.801Z,2.15
2022-09-11T13:28:55.629Z,2.13
2022-09-11T13:31:35.299Z,2.53
2022-09-11T13:34:07.943Z,2.50
2022-09-11T13:36:38.327Z,2.45
2022-09-11T13:39:09.580Z,2.00
2022-09-11T13:41:47.472Z,2.17
2022-09-11T13:44:33.530Z,1.92
2022-09-11T13:47:05.951Z,2.03
2022-09-11T13:49:38.795Z,2.30
2022-09-11T13:52:09.605Z,2.00
2022-09-11T13:54:43.863Z,2.10
2022-09-11T13:57:18.063Z,1.80
2022-09-11T13:59:53.169Z,1.98
2022-09-11T14:02:32.659Z,1.70
2022-09-11T14:05:09.524Z,1.83
2022-09-11T14:07:48.770Z,1.95
2022-09-11T14:10:23.769Z,2.30
2022-09-11T14:12:59.461Z,2.10
2022-09-11T14:15:39.905Z,2.22
2022-09-11T14:18:19.651Z,2.10
2022-09-11T14:20:49.243Z,2.20
2022-09-11T14:23:25.149Z,2.22
2022-09-11T14:26:10.818Z,2.13
2022-09-11T14:28:46.140Z,2.17
2022-09-11T14:31:30.519Z,1.92
2022-09-11T14:34:17.361Z,2.30
2022-09-11T14:36:52.390Z,2.05
2022-09-11T14:39:31.477Z,2.40
2022-09-11T14:42:01.825Z,2.38
2022-09-11T14:44:32.371Z,2.15
2022-09-11T14:47:03.993Z,2.45
2022-09-11T14:52:03.217Z,2.47
2022-09-11T14:54:32.827Z,3.05
2022-09-11T14:57:03.296Z,3.25
2022-09-11T14:59:32.576Z,4.93
2022-09-11T15:02:09.515Z,4.25
2022-09-11T15:07:13.594Z,2.97
2022-09-11T15:09:43.142Z,3.10
2022-09-11T15:12:19.276Z,2.70
2022-09-11T15:14:56.863Z,3.13
2022-09-11T15:17:30.901Z,2.75
2022-09-11T15:20:00.838Z,2.72
2022-09-11T15:22:30.900Z,2.63
2022-09-11T15:25:05.180Z,2.35
2022-09-11T15:27:34.503Z,1.75
2022-09-11T15:30:03.592Z,2.30
2022-09-11T15:32:35.096Z,2.38
2022-09-11T15:35:05.180Z,2.50
2022-09-11T15:37:35.523Z,2.80
2022-09-11T15:40:05.209Z,2.40
2022-09-11T15:42:39.533Z,2.42
2022-09-11T15:45:12.925Z,2.42
2022-09-11T15:47:44.104Z,2.78
2022-09-11T15:50:17.708Z,3.10
2022-09-11T15:52:48.205Z,2.65
2022-09-11T15:55:19.335Z,3.55
2022-09-11T15:57:48.560Z,3.72
2022-09-11T16:00:17.983Z,4.00
2022-09-11T16:02:53.762Z,3.75
2022-09-11T16:05:22.835Z,3.63
2022-09-11T16:07:52.413Z,5.07
2022-09-11T16:10:21.659Z,4.90
2022-09-11T16:12:52.083Z,5.80
2022-09-11T16:15:22.958Z,5.82
2022-09-11T16:17:54.306Z,6.65
2022-09-11T16:20:24.775Z,6.65
2022-09-11T16:22:54.363Z,5.15
2022-09-11T16:25:23.478Z,5.60
2022-09-11T16:27:53.049Z,6.05
2022-09-11T16:33:14.153Z,5.60
2022-09-11T16:35:43.353Z,5.75
2022-09-11T16:38:12.563Z,5.65
2022-09-11T16:40:42.026Z,6.18
2022-09-11T16:43:11.631Z,6.70
2022-09-11T16:45:43.741Z,6.15
2022-09-11T16:48:16.669Z,6.60
2022-09-11T16:50:55.175Z,6.53
2022-09-11T16:53:25.020Z,7.00
2022-09-11T16:55:55.054Z,6.93
2022-09-11T16:58:24.892Z,6.78
2022-09-11T17:00:54.228Z,6.57
2022-09-11T17:03:25.587Z,5.95
2022-09-11T17:05:57.253Z,6.10
2022-09-11T17:08:26.442Z,5.20
2022-09-11T17:10:57.848Z,4.20
2022-09-11T17:13:28.490Z,4.55
2022-09-11T17:16:03.393Z,4.57
2022-09-11T17:18:35.350Z,5.65
2022-09-11T17:21:07.242Z,7.22
2022-09-11T17:26:09.290Z,6.28
2022-09-11T17:28:39.103Z,6.80
2022-09-11T17:31:10.086Z,6.95
2022-09-11T17:33:41.921Z,6.45
2022-09-11T17:36:13.025Z,6.50
2022-09-11T17:38:49.692Z,6.25
2022-09-11T17:41:20.601Z,5.78
2022-09-11T17:43:50.548Z,5.90
2022-09-11T17:46:21.729Z,5.60
2022-09-11T17:48:52.994Z,6.40
2022-09-11T17:51:24.798Z,7.50
2022-09-11T17:56:31.869Z,7.53
2022-09-11T17:59:03.082Z,8.93
2022-09-11T18:01:32.383Z,10.30
2022-09-11T18:04:05.555Z,10.05
2022-09-11T18:06:41.475Z,8.95
2022-09-11T18:09:15.657Z,11.52
2022-09-11T18:11:47.266Z,12.05
2022-09-11T18:14:23.200Z,10.45
2022-09-11T18:16:57.695Z,11.40
2022-09-11T18:19:35.042Z,9.95
2022-09-11T18:22:04.352Z,9.55
2022-09-11T18:24:39.803Z,10.10
2022-09-11T18:27:11.256Z,11.93
2022-09-11T18:29:45.597Z,11.68
2022-09-11T18:32:21.761Z,10.48
2022-09-11T18:34:59.868Z,9.00
2022-09-11T18:37:29.767Z,8.75
2022-09-11T18:40:00.018Z,10.00
2022-09-11T18:42:29.658Z,9.75
2022-09-11T18:44:59.949Z,10.30
2022-09-11T18:47:30.344Z,10.68
2022-09-11T18:50:03.504Z,10.80
2022-09-11T18:52:33.974Z,11.38
2022-09-11T18:55:03.473Z,11.10
2022-09-11T18:57:38.627Z,11.30
2022-09-11T19:00:13.951Z,11.38
2022-09-11T19:02:43.294Z,12.13
2022-09-11T19:05:15.642Z,12.63
2022-09-11T19:07:46.185Z,13.25
2022-09-11T19:10:16.125Z,13.88
2022-09-11T19:12:45.577Z,13.10
2022-09-11T19:15:16.396Z,12.85
2022-09-11T19:17:47.900Z,13.43
2022-09-11T19:20:20.762Z,14.20
2022-09-11T19:22:50.008Z,13.55
2022-09-11T19:25:19.342Z,13.02
2022-09-11T19:28:00.318Z,13.25
2022-09-11T19:30:29.431Z,14.40
2022-09-11T19:33:00.452Z,13.48
2022-09-11T19:35:31.719Z,13.20
2022-09-11T19:38:01.313Z,13.77
2022-09-11T19:40:30.552Z,13.27
2022-09-11T19:43:04.680Z,14.07
2022-09-11T19:45:39.268Z,13.45
2022-09-11T19:48:14.352Z,13.63
2022-09-11T19:50:47.608Z,14.30
2022-09-11T19:53:21.852Z,14.73
2022-09-11T19:55:55.501Z,15.55
2022-09-11T19:58:25.572Z,15.82
2022-09-11T20:00:55.108Z,15.43
2022-09-11T20:03:30.238Z,16.55
2022-09-11T20:06:02.347Z,15.70
2022-09-11T20:08:31.935Z,15.23
2022-09-11T20:11:03.271Z,14.75
2022-09-11T20:13:37.635Z,13.77
2022-09-11T20:16:14.528Z,14.43
2022-09-11T20:18:44.174Z,14.27
2022-09-11T20:21:17.231Z,13.82
2022-09-11T20:23:47.440Z,13.50
2022-09-11T20:26:23.832Z,12.40
2022-09-11T20:28:57.535Z,12.82
2022-09-11T20:31:29.424Z,12.40
2022-09-11T20:34:04.231Z,13.38
2022-09-11T20:36:35.451Z,12.50
2022-09-11T20:39:04.667Z,12.30
2022-09-11T20:41:35.345Z,11.45
2022-09-11T20:44:05.846Z,12.25
2022-09-11T20:46:43.080Z,12.38
2022-09-11T20:49:17.986Z,12.05
2022-09-11T20:51:49.222Z,12.80
2022-09-11T20:54:18.411Z,11.93
2022-09-11T20:56:47.914Z,11.80
2022-09-11T20:59:17.130Z,11.27
2022-09-11T21:01:46.363Z,9.98
2022-09-11T21:04:15.513Z,11.23
2022-09-11T21:06:44.978Z,10.23
2022-09-11T21:09:16.906Z,9.77
2022-09-11T21:14:16.751Z,9.52
2022-09-11T21:16:46.152Z,9.65
2022-09-11T21:19:15.348Z,10.18
2022-09-11T21:21:44.427Z,9.77
2022-09-11T21:24:21.074Z,9.43
2022-09-11T21:26:50.148Z,9.57
2022-09-11T21:29:19.185Z,9.95
2022-09-11T21:31:48.406Z,9.63
2022-09-11T21:34:18.077Z,9.85
2022-09-11T21:36:54.029Z,9.18
2022-09-11T21:39:24.972Z,9.90
2022-09-11T21:44:39.243Z,9.57
2022-09-11T21:47:08.380Z,10.18
2022-09-11T21:49:37.630Z,10.57
2022-09-11T21:52:07.218Z,9.80
2022-09-11T21:54:38.801Z,10.57
2022-09-11T21:57:08.054Z,10.43
2022-09-11T21:59:37.107Z,9.43
2022-09-11T22:02:08.364Z,10.35
2022-09-11T22:04:37.532Z,10.07
2022-09-11T22:07:06.700Z,10.25
2022-09-11T22:09:37.949Z,10.70
2022-09-11T22:12:12.553Z,10.73
2022-09-11T22:14:43.853Z,9.90
2022-09-11T22:17:13.428Z,10.10
2022-09-11T22:19:45.489Z,9.80
2022-09-11T22:22:14.825Z,10.48
2022-09-11T22:24:46.219Z,10.10
2022-09-11T22:27:20.491Z,10.27
2022-09-11T22:29:49.641Z,9.85
2022-09-11T22:32:18.629Z,10.45
2022-09-11T22:34:57.740Z,10.45
2022-09-11T22:37:26.974Z,10.30
2022-09-11T22:39:58.071Z,10.10
2022-09-11T22:42:27.222Z,9.68
2022-09-11T22:44:56.361Z,10.32
2022-09-11T22:47:32.846Z,9.50
2022-09-11T22:50:02.000Z,9.18
2022-09-11T22:52:32.746Z,10.20
2022-09-11T22:55:03.976Z,10.25
2022-09-11T22:57:33.391Z,9.38
2022-09-11T23:00:02.518Z,10.88
2022-09-11T23:02:33.811Z,9.10
2022-09-11T23:05:22.105Z,9.52
2022-09-11T23:07:56.575Z,8.98
2022-09-11T23:10:27.719Z,9.35
2022-09-11T23:12:56.948Z,9.27
2022-09-11T23:15:31.422Z,8.38
2022-09-11T23:18:00.565Z,8.48
2022-09-11T23:20:31.598Z,7.55
2022-09-11T23:23:01.146Z,7.80
2022-09-11T23:25:34.743Z,8.65
2022-09-11T23:30:40.564Z,7.18
2022-09-11T23:33:09.776Z,7.10
2022-09-11T23:35:39.930Z,6.80
2022-09-11T23:38:10.037Z,6.88
2022-09-11T23:40:41.344Z,6.57
2022-09-11T23:43:10.514Z,6.05
2022-09-11T23:45:39.623Z,6.03
2022-09-11T23:48:13.814Z,6.38
2022-09-11T23:50:42.976Z,6.32
2022-09-11T23:53:12.001Z,6.20
2022-09-11T23:58:19.659Z,6.07
